createdAt,value
2022-11-21T00:01:23.818Z,100498.97
2022-11-21T00:03:51.374Z,100506.53
2022-11-21T00:06:19.644Z,100509.81
2022-11-21T00:08:47.105Z,100488.94
2022-11-21T00:11:15.643Z,100495.94
2022-11-21T00:13:43.342Z,100490.44
2022-11-21T00:16:13.301Z,100495.22
2022-11-21T00:18:40.482Z,100485.50
2022-11-21T00:21:10.527Z,100500.69
2022-11-21T00:23:37.598Z,100506.19
2022-11-21T00:26:06.795Z,100501.03
2022-11-21T00:28:34.433Z,100513.41
2022-11-21T00:31:01.967Z,100500.53
2022-11-21T00:33:29.081Z,100507.59
2022-11-21T00:35:56.151Z,100514.69
2022-11-21T00:38:24.339Z,100511.44
2022-11-21T00:40:51.397Z,100509.00
2022-11-21T00:43:18.609Z,100509.84
2022-11-21T00:45:45.676Z,100512.47
2022-11-21T00:48:12.673Z,100509.94
2022-11-21T00:50:39.686Z,100526.81
2022-11-21T00:53:06.780Z,100537.81
2022-11-21T00:55:33.790Z,100537.00
2022-11-21T00:58:00.878Z,100536.38
2022-11-21T01:00:27.937Z,100532.38
2022-11-21T01:02:55.047Z,100525.81
2022-11-21T01:05:23.335Z,100516.31
2022-11-21T01:07:50.421Z,100521.81
2022-11-21T01:10:17.444Z,100522.69
2022-11-21T01:12:44.573Z,100530.50
2022-11-21T01:15:11.790Z,100512.19
2022-11-21T01:17:38.775Z,100530.31
2022-11-21T01:20:07.030Z,100527.00
2022-11-21T01:22:34.091Z,100522.63
2022-11-21T01:25:01.129Z,100519.34
2022-11-21T01:27:28.155Z,100515.94
2022-11-21T01:29:55.131Z,100513.28
2022-11-21T01:32:22.509Z,100520.00
2022-11-21T01:34:49.529Z,100525.94
2022-11-21T01:37:16.574Z,100520.84
2022-11-21T01:39:43.619Z,100513.94
2022-11-21T01:42:12.985Z,100502.94
2022-11-21T01:44:49.793Z,100494.16
2022-11-21T01:47:17.286Z,100505.25
2022-11-21T01:49:45.227Z,100511.22
2022-11-21T01:52:24.962Z,100507.72
2022-11-21T01:54:57.741Z,100518.78
2022-11-21T01:57:48.407Z,100506.03
2022-11-21T02:00:24.320Z,100510.41
2022-11-21T02:02:56.159Z,100512.00
2022-11-21T02:05:28.097Z,100507.72
2022-11-21T02:07:58.519Z,100505.19
2022-11-21T02:10:26.105Z,100498.41
2022-11-21T02:12:55.273Z,100504.34
2022-11-21T02:15:26.051Z,100496.50
2022-11-21T02:17:53.186Z,100502.28
2022-11-21T02:20:23.928Z,100507.38
2022-11-21T02:22:53.616Z,100509.84
2022-11-21T02:25:31.467Z,100514.94
2022-11-21T02:28:01.556Z,100509.00
2022-11-21T02:30:33.067Z,100509.78
2022-11-21T02:33:00.154Z,100505.16
2022-11-21T02:35:27.150Z,100508.69
2022-11-21T02:38:22.654Z,100502.50
2022-11-21T02:41:13.585Z,100498.06
2022-11-21T02:43:49.515Z,100496.06
2022-11-21T02:46:16.542Z,100496.63
2022-11-21T02:48:43.866Z,100500.84
2022-11-21T02:51:10.923Z,100496.63
2022-11-21T02:53:38.038Z,100492.88
2022-11-21T02:56:05.123Z,100497.50
2022-11-21T02:58:32.502Z,100498.28
2022-11-21T03:00:59.586Z,100490.66
2022-11-21T03:03:26.785Z,100485.00
2022-11-21T03:05:54.488Z,100479.19
2022-11-21T03:08:21.504Z,100477.63
2022-11-21T03:10:48.527Z,100479.44
2022-11-21T03:13:15.621Z,100486.38
2022-11-21T03:15:42.658Z,100484.00
2022-11-21T03:18:09.719Z,100478.19
2022-11-21T03:20:36.773Z,100471.41
2022-11-21T03:23:04.266Z,100472.28
2022-11-21T03:25:31.408Z,100473.94
2022-11-21T03:27:58.476Z,100466.47
2022-11-21T03:30:26.652Z,100454.47
2022-11-21T03:32:57.170Z,100453.66
2022-11-21T03:35:24.486Z,100452.00
2022-11-21T03:37:51.542Z,100452.00
2022-11-21T03:40:18.589Z,100452.06
2022-11-21T03:42:45.653Z,100458.03
2022-11-21T03:45:12.634Z,100450.16
2022-11-21T03:47:39.705Z,100446.03
2022-11-21T03:50:07.267Z,100442.53
2022-11-21T03:52:34.256Z,100444.19
2022-11-21T03:55:01.302Z,100448.34
2022-11-21T03:57:28.691Z,100448.22
2022-11-21T03:59:55.731Z,100448.97
2022-11-21T04:02:22.854Z,100462.59
2022-11-21T04:04:49.854Z,100456.66
2022-11-21T04:07:16.951Z,100443.78
2022-11-21T04:09:43.980Z,100456.53
2022-11-21T04:12:10.987Z,100456.66
2022-11-21T04:14:38.045Z,100439.56
2022-11-21T04:17:05.286Z,100444.50
2022-11-21T04:19:32.286Z,100439.25
2022-11-21T04:21:59.338Z,100445.22
2022-11-21T04:24:26.707Z,100453.00
2022-11-21T04:26:55.350Z,100447.19
2022-11-21T04:29:22.433Z,100453.19
2022-11-21T04:31:49.401Z,100448.81
2022-11-21T04:34:16.435Z,100447.91
2022-11-21T04:36:43.574Z,100446.16
2022-11-21T04:39:10.815Z,100452.28
2022-11-21T04:41:37.853Z,100446.25
2022-11-21T04:44:05.119Z,100443.13
2022-11-21T04:46:32.160Z,100450.88
2022-11-21T04:48:59.248Z,100444.09
2022-11-21T04:51:26.238Z,100429.53
2022-11-21T04:53:53.615Z,100430.25
2022-11-21T04:56:20.650Z,100430.03
2022-11-21T04:58:47.680Z,100424.75
2022-11-21T05:01:14.785Z,100422.13
2022-11-21T05:03:41.862Z,100424.75
2022-11-21T05:06:08.923Z,100412.81
2022-11-21T05:08:35.991Z,100405.28
2022-11-21T05:11:22.056Z,100409.59
2022-11-21T05:13:49.093Z,100412.91
2022-11-21T05:16:16.131Z,100424.94
2022-11-21T05:18:43.677Z,100416.56
2022-11-21T05:21:10.741Z,100416.63
2022-11-21T05:23:37.742Z,100418.41
2022-11-21T05:26:04.754Z,100404.00
2022-11-21T05:28:31.774Z,100404.00
2022-11-21T05:30:58.847Z,100395.47
2022-11-21T05:33:25.901Z,100394.44
2022-11-21T05:35:53.064Z,100394.59
2022-11-21T05:38:20.128Z,100397.41
2022-11-21T05:40:47.554Z,100393.16
2022-11-21T05:43:33.060Z,100394.91
2022-11-21T05:46:00.069Z,100400.88
2022-11-21T05:48:27.133Z,100388.06
2022-11-21T05:50:54.486Z,100385.69
2022-11-21T05:53:21.768Z,100381.63
2022-11-21T05:55:48.780Z,100376.44
2022-11-21T05:58:18.711Z,100375.63
2022-11-21T06:00:45.732Z,100361.25
2022-11-21T06:03:27.642Z,100363.88
2022-11-21T06:06:07.977Z,100367.28
2022-11-21T06:08:37.613Z,100361.38
2022-11-21T06:11:06.351Z,100368.22
2022-11-21T06:13:36.528Z,100366.56
2022-11-21T06:16:06.390Z,100360.34
2022-11-21T06:18:35.458Z,100370.94
2022-11-21T06:21:05.565Z,100366.78
2022-11-21T06:23:32.674Z,100360.03
2022-11-21T06:26:02.190Z,100347.22
2022-11-21T06:28:34.855Z,100354.22
2022-11-21T06:31:10.669Z,100344.91
2022-11-21T06:33:38.710Z,100339.88
2022-11-21T06:36:08.252Z,100340.84
2022-11-21T06:38:35.781Z,100347.66
2022-11-21T06:41:32.242Z,100333.81
2022-11-21T06:44:01.394Z,100332.53
2022-11-21T06:46:28.668Z,100338.72
2022-11-21T06:48:55.683Z,100334.59
2022-11-21T06:51:24.097Z,100327.81
2022-11-21T06:53:56.433Z,100327.91
2022-11-21T06:56:28.562Z,100339.91
2022-11-21T06:58:56.380Z,100334.88
2022-11-21T07:01:23.948Z,100333.22
2022-11-21T07:03:51.812Z,100342.69
2022-11-21T07:06:18.840Z,100332.56
2022-11-21T07:08:45.877Z,100331.81
2022-11-21T07:11:30.313Z,100331.19
2022-11-21T07:13:57.416Z,100340.72
2022-11-21T07:16:26.308Z,100334.81
2022-11-21T07:18:53.546Z,100334.81
2022-11-21T07:21:20.726Z,100337.53
2022-11-21T07:23:48.681Z,100324.78
2022-11-21T07:26:15.810Z,100326.66
2022-11-21T07:28:43.200Z,100320.81
2022-11-21T07:31:13.993Z,100309.84
2022-11-21T07:33:43.442Z,100310.72
2022-11-21T07:36:11.919Z,100299.69
2022-11-21T07:38:39.110Z,100296.50
2022-11-21T07:41:06.190Z,100300.59
2022-11-21T07:43:33.249Z,100306.78
2022-11-21T07:46:00.297Z,100296.66
2022-11-21T07:48:27.360Z,100299.41
2022-11-21T07:50:54.375Z,100309.69
2022-11-21T07:53:21.952Z,100317.47
2022-11-21T07:55:49.413Z,100309.19
2022-11-21T07:58:17.289Z,100307.56
2022-11-21T08:00:44.364Z,100300.94
2022-11-21T08:03:13.100Z,100298.56
2022-11-21T08:05:42.756Z,100291.81
2022-11-21T08:08:12.118Z,100294.41
2022-11-21T08:10:43.885Z,100286.91
2022-11-21T08:13:12.050Z,100287.88
2022-11-21T08:15:39.611Z,100288.00
2022-11-21T08:18:11.015Z,100282.88
2022-11-21T08:20:38.437Z,100282.22
2022-11-21T08:23:06.551Z,100266.34
2022-11-21T08:25:36.687Z,100282.34
2022-11-21T08:28:04.528Z,100266.97
2022-11-21T08:30:32.797Z,100267.09
2022-11-21T08:33:00.213Z,100266.38
2022-11-21T08:35:28.427Z,100256.03
2022-11-21T08:37:59.242Z,100267.47
2022-11-21T08:40:27.720Z,100260.81
2022-11-21T08:43:20.759Z,100261.81
2022-11-21T08:45:47.988Z,100259.41
2022-11-21T08:48:15.261Z,100257.88
2022-11-21T08:50:42.278Z,100249.47
2022-11-21T08:53:09.235Z,100249.66
2022-11-21T08:55:36.241Z,100234.16
2022-11-21T08:58:03.286Z,100235.41
2022-11-21T09:00:30.299Z,100233.84
2022-11-21T09:02:57.342Z,100228.88
2022-11-21T09:05:24.638Z,100224.63
2022-11-21T09:07:58.279Z,100224.03
2022-11-21T09:10:26.913Z,100222.47
2022-11-21T09:12:54.001Z,100220.03
2022-11-21T09:15:39.806Z,100202.25
2022-11-21T09:18:08.069Z,100199.06
2022-11-21T09:20:47.698Z,100200.72
2022-11-21T09:23:15.968Z,100213.69
2022-11-21T09:25:43.390Z,100202.63
2022-11-21T09:28:12.580Z,100203.88
2022-11-21T09:30:40.902Z,100200.56
2022-11-21T09:33:11.592Z,100201.50
2022-11-21T09:35:38.900Z,100194.75
2022-11-21T09:38:06.355Z,100193.25
2022-11-21T09:40:34.785Z,100187.44
2022-11-21T09:43:26.335Z,100176.56
2022-11-21T09:46:15.959Z,100168.94
2022-11-21T09:48:59.112Z,100169.22
2022-11-21T09:51:30.873Z,100171.03
2022-11-21T09:54:18.848Z,100163.44
2022-11-21T09:56:47.237Z,100157.31
2022-11-21T09:59:26.353Z,100160.13
2022-11-21T10:01:53.405Z,100158.38
2022-11-21T10:04:20.535Z,100151.59
2022-11-21T10:07:04.814Z,100152.50
2022-11-21T10:09:55.917Z,100145.09
2022-11-21T10:12:38.672Z,100142.63
2022-11-21T10:15:29.095Z,100141.00
2022-11-21T10:18:14.369Z,100144.53
2022-11-21T10:20:50.628Z,100148.84
2022-11-21T10:23:36.861Z,100152.38
2022-11-21T10:26:30.942Z,100150.66
2022-11-21T10:29:06.967Z,100145.53
2022-11-21T10:31:38.588Z,100142.22
2022-11-21T10:34:18.203Z,100138.00
2022-11-21T10:36:49.817Z,100135.53
2022-11-21T10:39:23.077Z,100131.38
2022-11-21T10:42:06.516Z,100120.41
2022-11-21T10:44:51.946Z,100111.22
2022-11-21T10:47:27.938Z,100115.63
2022-11-21T10:50:01.408Z,100103.00
2022-11-21T10:52:34.152Z,100103.97
2022-11-21T10:55:12.635Z,100093.88
2022-11-21T10:57:41.890Z,100092.31
2022-11-21T11:00:12.300Z,100093.31
2022-11-21T11:02:41.355Z,100086.59
2022-11-21T11:05:25.257Z,100078.28
2022-11-21T11:08:02.473Z,100087.94
2022-11-21T11:10:31.221Z,100077.91
2022-11-21T11:13:44.641Z,100087.59
2022-11-21T11:16:16.949Z,100071.66
2022-11-21T11:19:08.659Z,100058.91
2022-11-21T11:21:44.306Z,100067.78
2022-11-21T11:24:14.339Z,100063.75
2022-11-21T11:26:53.124Z,100053.59
2022-11-21T11:29:24.441Z,100052.16
2022-11-21T11:31:58.725Z,100042.09
2022-11-21T11:34:38.716Z,100038.88
2022-11-21T11:37:41.161Z,100034.84
2022-11-21T11:40:26.690Z,100025.72
2022-11-21T11:43:31.124Z,100019.03
2022-11-21T11:47:04.336Z,100024.34
2022-11-21T11:50:15.650Z,100015.09
2022-11-21T11:53:00.548Z,100016.88
2022-11-21T11:55:33.560Z,100009.34
2022-11-21T11:58:05.123Z,100003.44
2022-11-21T12:00:45.187Z,99995.28
2022-11-21T12:03:19.109Z,99982.47
2022-11-21T12:06:08.632Z,99976.66
2022-11-21T12:08:50.964Z,99970.09
2022-11-21T12:11:45.557Z,99964.41
2022-11-21T12:14:48.739Z,99955.16
2022-11-21T12:17:19.498Z,99945.94
2022-11-21T12:19:48.763Z,99935.72
2022-11-21T12:22:15.828Z,99937.47
2022-11-21T12:24:43.569Z,99929.22
2022-11-21T12:27:31.466Z,99921.44
2022-11-21T12:30:25.181Z,99925.75
2022-11-21T12:33:13.364Z,99912.09
2022-11-21T12:36:17.464Z,99909.53
2022-11-21T12:38:52.066Z,99907.19
2022-11-21T12:42:01.740Z,99897.78
2022-11-21T12:44:40.358Z,99899.59
2022-11-21T12:47:57.608Z,99885.03
2022-11-21T12:50:58.936Z,99879.91
2022-11-21T12:54:07.628Z,99873.09
2022-11-21T12:56:57.743Z,99869.66
2022-11-21T12:59:25.369Z,99860.31
2022-11-21T13:02:29.970Z,99851.88
2022-11-21T13:04:59.523Z,99854.47
2022-11-21T13:07:31.227Z,99837.38
2022-11-21T13:10:00.933Z,99832.28
2022-11-21T13:12:40.150Z,99828.97
2022-11-21T13:15:21.851Z,99815.34
2022-11-21T13:17:53.773Z,99817.97
2022-11-21T13:20:28.030Z,99809.38
2022-11-21T13:22:57.492Z,99811.94
2022-11-21T13:25:30.261Z,99812.06
2022-11-21T13:28:19.067Z,99801.91
2022-11-21T13:30:51.103Z,99791.53
2022-11-21T13:33:38.947Z,99793.38
2022-11-21T13:36:10.408Z,99788.22
2022-11-21T13:38:55.340Z,99777.16
2022-11-21T13:41:53.195Z,99782.41
2022-11-21T13:44:32.271Z,99777.31
2022-11-21T13:47:09.354Z,99778.97
2022-11-21T13:49:54.837Z,99772.09
2022-11-21T13:52:53.915Z,99758.31
2022-11-21T13:55:20.907Z,99748.03
2022-11-21T13:58:38.741Z,99748.75
2022-11-21T14:01:10.427Z,99746.16
2022-11-21T14:03:55.860Z,99740.94
2022-11-21T14:06:44.498Z,99732.22
2022-11-21T14:09:21.840Z,99716.63
2022-11-21T14:11:53.124Z,99711.50
2022-11-21T14:14:31.460Z,99699.56
2022-11-21T14:17:09.141Z,99697.00
2022-11-21T14:19:36.411Z,99701.19
2022-11-21T14:22:03.428Z,99710.53
2022-11-21T14:24:30.622Z,99694.25
2022-11-21T14:26:58.362Z,99706.25
2022-11-21T14:29:39.477Z,99704.56
2022-11-21T14:32:14.056Z,99689.84
2022-11-21T14:34:41.124Z,99679.66
2022-11-21T14:37:08.294Z,99677.06
2022-11-21T14:39:44.126Z,99669.38
2022-11-21T14:42:16.189Z,99661.69
2022-11-21T14:44:43.984Z,99661.75
2022-11-21T14:47:23.505Z,99655.72
2022-11-21T14:49:54.912Z,99659.09
2022-11-21T14:52:34.065Z,99647.91
2022-11-21T14:57:53.056Z,99642.66
2022-11-21T15:00:58.015Z,99643.47
2022-11-21T15:03:22.291Z,99642.47
2022-11-21T15:06:08.355Z,99637.34
2022-11-21T15:11:34.589Z,99630.38
2022-11-21T15:14:16.554Z,99637.22
2022-11-21T15:16:50.237Z,99630.34
2022-11-21T15:19:22.610Z,99620.81
2022-11-21T15:21:53.088Z,99628.63
2022-11-21T15:24:42.290Z,99624.38
2022-11-21T15:27:27.539Z,99612.41
2022-11-21T15:30:09.541Z,99607.38
2022-11-21T15:33:08.937Z,99606.47
2022-11-21T15:35:39.421Z,99604.78
2022-11-21T15:38:27.439Z,99593.59
2022-11-21T15:41:10.582Z,99585.00
2022-11-21T15:43:47.962Z,99585.00
2022-11-21T15:46:32.838Z,99574.66
2022-11-21T15:49:31.455Z,99574.72
2022-11-21T15:52:10.406Z,99556.78
2022-11-21T15:54:38.025Z,99559.31
2022-11-21T15:57:05.361Z,99547.25
2022-11-21T15:59:32.760Z,99544.75
2022-11-21T16:01:59.965Z,99542.13
2022-11-21T16:04:27.382Z,99533.50
2022-11-21T16:06:54.921Z,99532.66
2022-11-21T16:09:22.088Z,99530.84
2022-11-21T16:11:49.130Z,99529.25
2022-11-21T16:14:18.337Z,99518.91
2022-11-21T16:16:48.728Z,99514.53
2022-11-21T16:19:16.170Z,99506.91
2022-11-21T16:21:43.202Z,99503.53
2022-11-21T16:24:10.296Z,99505.97
2022-11-21T16:26:37.535Z,99501.56
2022-11-21T16:29:05.667Z,99509.19
2022-11-21T16:31:33.133Z,99504.81
2022-11-21T16:34:00.749Z,99507.38
2022-11-21T16:36:30.528Z,99497.91
2022-11-21T16:39:01.903Z,99503.00
2022-11-21T16:41:32.586Z,99499.44
2022-11-21T16:43:59.633Z,99501.28
2022-11-21T16:46:26.800Z,99494.44
2022-11-21T16:49:02.388Z,99485.75
2022-11-21T16:51:29.899Z,99494.25
2022-11-21T16:53:59.681Z,99474.63
2022-11-21T16:56:30.120Z,99468.69
2022-11-21T16:58:57.170Z,99466.94
2022-11-21T17:01:26.136Z,99460.09
2022-11-21T17:03:53.508Z,99451.50
2022-11-21T17:06:23.770Z,99454.13
2022-11-21T17:08:50.882Z,99438.75
2022-11-21T17:11:19.214Z,99442.13
2022-11-21T17:13:47.963Z,99444.69
2022-11-21T17:16:17.073Z,99426.72
2022-11-21T17:18:44.928Z,99433.59
2022-11-21T17:21:15.757Z,99426.72
2022-11-21T17:23:44.759Z,99425.84
2022-11-21T17:26:17.337Z,99427.56
2022-11-21T17:28:46.090Z,99412.94
2022-11-21T17:31:15.387Z,99408.78
2022-11-21T17:33:43.441Z,99401.00
2022-11-21T17:36:14.471Z,99393.34
2022-11-21T17:38:42.935Z,99396.00
2022-11-21T17:41:12.041Z,99399.38
2022-11-21T17:43:39.467Z,99390.84
2022-11-21T17:46:18.324Z,99384.91
2022-11-21T17:48:51.442Z,99380.59
2022-11-21T17:51:25.357Z,99375.47
2022-11-21T17:53:53.124Z,99373.78
2022-11-21T17:56:23.161Z,99360.91
2022-11-21T17:58:51.293Z,99364.31
2022-11-21T18:01:19.884Z,99347.09
2022-11-21T18:04:18.103Z,99351.41
2022-11-21T18:06:45.177Z,99348.84
2022-11-21T18:09:12.829Z,99348.84
2022-11-21T18:11:40.806Z,99342.88
2022-11-21T18:14:09.867Z,99339.41
2022-11-21T18:16:43.653Z,99330.03
2022-11-21T18:19:14.826Z,99330.03
2022-11-21T18:21:42.328Z,99329.16
2022-11-21T18:24:09.541Z,99324.00
2022-11-21T18:26:38.565Z,99327.47
2022-11-21T18:31:56.875Z,99317.13
2022-11-21T18:34:24.190Z,99316.28
2022-11-21T18:36:51.288Z,99316.28
2022-11-21T18:39:18.351Z,99311.16
2022-11-21T18:41:45.460Z,99293.22
2022-11-21T18:44:20.141Z,99303.50
2022-11-21T18:46:49.065Z,99281.19
2022-11-21T18:49:16.073Z,99277.78
2022-11-21T18:51:43.142Z,99271.84
2022-11-21T18:54:10.938Z,99269.28
2022-11-21T18:56:39.502Z,99263.28
2022-11-21T18:59:06.993Z,99268.44
2022-11-21T19:01:35.963Z,99266.78
2022-11-21T19:04:03.346Z,99255.78
2022-11-21T19:06:30.412Z,99262.63
2022-11-21T19:08:58.357Z,99263.56
2022-11-21T19:11:27.659Z,99267.88
2022-11-21T19:13:56.329Z,99261.06
2022-11-21T19:16:25.264Z,99271.31
2022-11-21T19:21:42.368Z,99263.56
2022-11-21T19:24:14.629Z,99249.97
2022-11-21T19:26:42.499Z,99240.56
2022-11-21T19:29:10.550Z,99237.03
2022-11-21T19:31:43.101Z,99230.16
2022-11-21T19:34:12.923Z,99225.00
2022-11-21T19:36:40.402Z,99231.81
2022-11-21T19:39:07.668Z,99221.56
2022-11-21T19:41:34.741Z,99213.81
2022-11-21T19:44:02.181Z,99214.72
2022-11-21T19:46:32.672Z,99216.44
2022-11-21T19:49:00.787Z,99214.75
2022-11-21T19:51:30.322Z,99211.34
2022-11-21T19:53:57.498Z,99209.66
2022-11-21T19:56:26.348Z,99212.25
2022-11-21T19:58:56.355Z,99209.66
2022-11-21T20:01:26.211Z,99205.41
2022-11-21T20:03:56.295Z,99208.84
2022-11-21T20:06:26.351Z,99205.44
2022-11-21T20:08:57.292Z,99202.88
2022-11-21T20:11:26.284Z,99198.56
2022-11-21T20:13:53.968Z,99191.72
2022-11-21T20:16:23.172Z,99192.53
2022-11-21T20:18:51.422Z,99183.94
2022-11-21T20:21:19.683Z,99177.97
2022-11-21T20:23:47.544Z,99178.88
2022-11-21T20:26:17.310Z,99167.72
2022-11-21T20:28:44.682Z,99166.00
2022-11-21T20:31:17.380Z,99168.53
2022-11-21T20:33:47.375Z,99165.91
2022-11-21T20:36:20.156Z,99160.78
2022-11-21T20:38:54.604Z,99159.88
2022-11-21T20:41:24.130Z,99151.31
2022-11-21T20:46:46.863Z,99164.97
2022-11-21T20:49:14.094Z,99153.00
2022-11-21T20:54:30.592Z,99158.97
2022-11-21T20:56:57.866Z,99154.66
2022-11-21T20:59:25.910Z,99151.22
2022-11-21T21:01:53.479Z,99144.41
2022-11-21T21:04:20.523Z,99143.50
2022-11-21T21:06:48.066Z,99149.53
2022-11-21T21:09:15.171Z,99147.78
2022-11-21T21:11:51.935Z,99149.47
2022-11-21T21:14:20.021Z,99143.44
2022-11-21T21:16:47.062Z,99148.59
2022-11-21T21:19:14.326Z,99143.44
2022-11-21T21:21:41.724Z,99144.28
2022-11-21T21:24:11.156Z,99140.88
2022-11-21T21:26:43.077Z,99139.16
2022-11-21T21:29:12.500Z,99128.91
2022-11-21T21:31:42.848Z,99123.69
2022-11-21T21:34:14.003Z,99124.63
2022-11-21T21:36:41.250Z,99120.34
2022-11-21T21:39:08.446Z,99119.47
2022-11-21T21:41:36.135Z,99118.66
2022-11-21T21:44:03.290Z,99119.47
2022-11-21T21:46:30.325Z,99108.31
2022-11-21T21:48:58.187Z,99102.44
2022-11-21T21:51:27.758Z,99099.84
2022-11-21T21:53:56.795Z,99101.53
2022-11-21T21:56:26.889Z,99101.59
2022-11-21T21:58:54.200Z,99084.44
2022-11-21T22:01:23.924Z,99090.44
2022-11-21T22:03:55.912Z,99082.75
2022-11-21T22:06:23.862Z,99087.91
2022-11-21T22:08:51.751Z,99075.97
2022-11-21T22:11:21.368Z,99069.13
2022-11-21T22:13:53.455Z,99072.53
2022-11-21T22:16:20.552Z,99067.38
2022-11-21T22:18:48.130Z,99070.84
2022-11-21T22:21:16.334Z,99060.59
2022-11-21T22:24:02.902Z,99058.88
2022-11-21T22:26:31.703Z,99053.81
2022-11-21T22:28:58.818Z,99056.38
2022-11-21T22:31:25.847Z,99055.50
2022-11-21T22:33:53.182Z,99056.38
2022-11-21T22:36:20.297Z,99052.09
2022-11-21T22:38:48.031Z,99056.44
2022-11-21T22:41:20.594Z,99048.75
2022-11-21T22:43:53.303Z,99052.22
2022-11-21T22:46:21.158Z,99041.13
2022-11-21T22:48:48.882Z,99042.84
2022-11-21T22:51:22.421Z,99033.44
2022-11-21T22:53:50.526Z,99038.63
2022-11-21T22:56:20.235Z,99033.50
2022-11-21T22:58:48.405Z,99022.41
2022-11-21T23:01:25.887Z,99016.47
2022-11-21T23:03:55.605Z,99007.06
2022-11-21T23:06:25.004Z,99015.63
2022-11-21T23:08:54.115Z,99018.22
2022-11-21T23:11:23.443Z,99014.78
2022-11-21T23:13:52.263Z,99004.50
2022-11-21T23:16:20.179Z,99012.25
2022-11-21T23:18:47.392Z,99013.13
2022-11-21T23:21:14.976Z,99000.25
2022-11-21T23:23:42.226Z,99008.00
2022-11-21T23:26:10.121Z,99019.09
2022-11-21T23:28:37.135Z,99009.72
2022-11-21T23:31:04.359Z,99007.16
2022-11-21T23:33:32.313Z,99008.84
2022-11-21T23:35:59.407Z,99008.88
2022-11-21T23:38:26.648Z,99012.31
2022-11-21T23:40:53.707Z,99008.00
2022-11-21T23:43:20.774Z,99009.78
2022-11-21T23:45:52.234Z,98992.66
2022-11-21T23:48:21.048Z,98990.94
2022-11-21T23:50:50.744Z,98996.97
2022-11-21T23:53:19.015Z,98995.25
2022-11-21T23:55:46.405Z,98996.09
2022-11-21T23:58:13.873Z,98994.41
